createdAt,value
2022-07-29T00:01:02.079Z,58.41
2022-07-29T00:03:28.608Z,58.39
2022-07-29T00:05:55.285Z,58.63
2022-07-29T00:08:21.821Z,59.12
2022-07-29T00:10:48.586Z,59.23
2022-07-29T00:13:15.170Z,59.08
2022-07-29T00:15:41.805Z,59.24
2022-07-29T00:18:08.447Z,59.38
2022-07-29T00:20:35.089Z,59.73
2022-07-29T00:23:01.600Z,59.88
2022-07-29T00:25:28.209Z,59.48
2022-07-29T00:27:54.728Z,59.85
2022-07-29T00:30:21.405Z,59.94
2022-07-29T00:32:47.906Z,60.06
2022-07-29T00:35:14.489Z,59.90
2022-07-29T00:37:41.119Z,60.60
2022-07-29T00:40:08.523Z,60.33
2022-07-29T00:42:53.220Z,60.86
2022-07-29T00:45:20.503Z,60.24
2022-07-29T00:47:47.632Z,60.46
2022-07-29T00:50:14.705Z,60.04
2022-07-29T00:52:42.629Z,59.89
2022-07-29T00:55:12.923Z,60.17
2022-07-29T00:57:41.155Z,59.86
2022-07-29T01:00:11.119Z,59.88
2022-07-29T01:02:37.942Z,59.91
2022-07-29T01:05:06.048Z,59.92
2022-07-29T01:07:34.868Z,59.99
2022-07-29T01:10:04.049Z,60.31
2022-07-29T01:12:31.880Z,60.38
2022-07-29T01:14:59.677Z,60.24
2022-07-29T01:17:57.077Z,60.49
2022-07-29T01:20:47.164Z,60.99
2022-07-29T01:23:40.852Z,61.16
2022-07-29T01:26:44.683Z,60.78
2022-07-29T01:29:44.674Z,61.98
2022-07-29T01:32:27.797Z,61.24
2022-07-29T01:34:58.117Z,61.66
2022-07-29T01:37:30.581Z,61.65
2022-07-29T01:39:59.819Z,61.63
2022-07-29T01:42:43.055Z,62.35
2022-07-29T01:45:11.898Z,62.08
2022-07-29T01:47:44.337Z,62.14
2022-07-29T01:50:15.515Z,62.56
2022-07-29T01:52:47.724Z,62.71
2022-07-29T01:55:17.118Z,62.56
2022-07-29T01:57:48.387Z,63.33
2022-07-29T02:00:16.305Z,62.79
2022-07-29T02:02:45.104Z,63.00
2022-07-29T02:05:15.566Z,63.04
2022-07-29T02:07:45.225Z,63.00
2022-07-29T02:10:15.273Z,63.71
2022-07-29T02:12:44.099Z,63.54
2022-07-29T02:15:17.928Z,63.49
2022-07-29T02:17:57.012Z,63.60
2022-07-29T02:20:27.017Z,63.32
2022-07-29T02:22:55.612Z,63.98
2022-07-29T02:25:23.378Z,63.53
2022-07-29T02:27:51.972Z,64.06
2022-07-29T02:30:22.595Z,63.77
2022-07-29T02:32:50.416Z,63.54
2022-07-29T02:35:17.742Z,63.47
2022-07-29T02:37:46.462Z,63.88
2022-07-29T02:40:16.168Z,63.58
2022-07-29T02:42:44.899Z,63.85
2022-07-29T02:45:11.719Z,63.95
2022-07-29T02:47:44.831Z,63.64
2022-07-29T02:50:14.510Z,63.96
2022-07-29T02:53:09.832Z,63.72
2022-07-29T02:55:47.237Z,64.18
2022-07-29T02:58:22.637Z,63.51
2022-07-29T03:00:51.643Z,63.90
2022-07-29T03:03:19.864Z,63.92
2022-07-29T03:05:46.538Z,63.83
2022-07-29T03:08:15.863Z,63.69
2022-07-29T03:10:45.127Z,63.88
2022-07-29T03:13:13.416Z,64.35
2022-07-29T03:15:40.559Z,64.35
2022-07-29T03:18:07.902Z,64.11
2022-07-29T03:20:34.704Z,64.06
2022-07-29T03:23:01.267Z,64.17
2022-07-29T03:25:27.851Z,64.40
2022-07-29T03:27:54.353Z,64.20
2022-07-29T03:30:22.349Z,64.33
2022-07-29T03:32:52.160Z,64.35
2022-07-29T03:35:20.189Z,65.11
2022-07-29T03:37:47.496Z,65.23
2022-07-29T03:40:22.712Z,65.40
2022-07-29T03:42:51.575Z,65.09
2022-07-29T03:45:20.497Z,65.00
2022-07-29T03:47:57.050Z,65.22
2022-07-29T03:50:26.862Z,65.27
2022-07-29T03:52:53.558Z,65.46
2022-07-29T03:55:20.428Z,65.10
2022-07-29T03:57:47.637Z,65.48
2022-07-29T04:00:14.986Z,65.49
2022-07-29T04:02:41.920Z,65.48
2022-07-29T04:05:13.710Z,65.95
2022-07-29T04:07:41.678Z,65.85
2022-07-29T04:10:08.583Z,65.51
2022-07-29T04:12:35.125Z,65.85
2022-07-29T04:15:03.609Z,66.13
2022-07-29T04:17:30.271Z,65.41
2022-07-29T04:19:56.791Z,65.76
2022-07-29T04:22:23.397Z,66.01
2022-07-29T04:24:51.978Z,65.53
2022-07-29T04:27:18.566Z,65.48
2022-07-29T04:29:56.320Z,65.48
2022-07-29T04:32:25.055Z,65.85
2022-07-29T04:34:52.266Z,66.25
2022-07-29T04:37:19.281Z,66.53
2022-07-29T04:39:45.789Z,66.14
2022-07-29T04:42:12.332Z,66.71
2022-07-29T04:44:43.218Z,65.98
2022-07-29T04:47:10.145Z,66.63
2022-07-29T04:49:39.360Z,66.93
2022-07-29T04:52:06.994Z,67.12
2022-07-29T04:54:33.691Z,66.50
2022-07-29T04:57:00.265Z,66.34
2022-07-29T04:59:26.772Z,66.58
2022-07-29T05:01:53.362Z,66.93
2022-07-29T05:04:20.662Z,67.34
2022-07-29T05:06:47.605Z,66.74
2022-07-29T05:09:14.123Z,66.61
2022-07-29T05:11:40.673Z,66.77
2022-07-29T05:14:07.187Z,67.39
2022-07-29T05:16:34.204Z,67.39
2022-07-29T05:19:00.760Z,66.80
2022-07-29T05:21:27.344Z,67.32
2022-07-29T05:23:53.840Z,67.03
2022-07-29T05:26:20.399Z,67.12
2022-07-29T05:28:47.013Z,66.58
2022-07-29T05:31:13.686Z,66.53
2022-07-29T05:33:40.234Z,67.41
2022-07-29T05:36:06.864Z,67.29
2022-07-29T05:38:34.333Z,66.91
2022-07-29T05:41:00.932Z,67.18
2022-07-29T05:43:29.064Z,67.13
2022-07-29T05:45:55.910Z,67.00
2022-07-29T05:48:22.468Z,66.50
2022-07-29T05:50:49.228Z,66.95
2022-07-29T05:53:19.378Z,66.90
2022-07-29T05:55:50.986Z,66.36
2022-07-29T05:58:18.926Z,66.41
2022-07-29T06:00:45.957Z,66.52
2022-07-29T06:03:12.717Z,66.56
2022-07-29T06:05:39.295Z,66.64
2022-07-29T06:08:06.165Z,66.81
2022-07-29T06:10:32.679Z,66.15
2022-07-29T06:12:59.263Z,66.39
2022-07-29T06:15:25.778Z,66.17
2022-07-29T06:17:59.353Z,66.15
2022-07-29T06:20:31.591Z,65.85
2022-07-29T06:22:59.031Z,66.16
2022-07-29T06:25:25.712Z,65.88
2022-07-29T06:27:52.257Z,65.70
2022-07-29T06:30:18.915Z,65.60
2022-07-29T06:32:45.469Z,65.54
2022-07-29T06:35:38.537Z,65.21
2022-07-29T06:37:59.785Z,65.17
2022-07-29T06:40:27.097Z,65.46
2022-07-29T06:42:53.654Z,64.51
2022-07-29T06:45:20.299Z,64.63
2022-07-29T06:47:46.851Z,64.64
2022-07-29T06:50:13.481Z,64.09
2022-07-29T06:52:40.133Z,63.82
2022-07-29T06:55:07.333Z,63.72
2022-07-29T06:57:33.979Z,63.74
2022-07-29T07:00:01.012Z,63.22
2022-07-29T07:02:27.654Z,63.13
2022-07-29T07:04:54.598Z,62.80
2022-07-29T07:07:21.178Z,63.08
2022-07-29T07:09:47.714Z,62.42
2022-07-29T07:12:14.329Z,62.40
2022-07-29T07:14:40.866Z,61.86
2022-07-29T07:17:07.472Z,62.24
2022-07-29T07:19:34.401Z,61.47
2022-07-29T07:22:00.945Z,61.15
2022-07-29T07:24:28.089Z,61.01
2022-07-29T07:26:54.659Z,61.02
2022-07-29T07:29:21.176Z,61.06
2022-07-29T07:31:47.823Z,60.66
2022-07-29T07:34:14.686Z,59.88
2022-07-29T07:36:41.521Z,60.12
2022-07-29T07:39:08.030Z,60.30
2022-07-29T07:41:34.633Z,59.85
2022-07-29T07:44:01.178Z,59.33
2022-07-29T07:46:27.712Z,59.09
2022-07-29T07:48:54.270Z,58.80
2022-07-29T07:51:20.941Z,58.58
2022-07-29T07:53:47.455Z,58.66
2022-07-29T07:56:14.009Z,59.00
2022-07-29T07:58:40.543Z,58.76
2022-07-29T08:01:07.325Z,58.01
2022-07-29T08:03:34.192Z,58.27
2022-07-29T08:06:00.746Z,57.36
2022-07-29T08:08:27.274Z,56.84
2022-07-29T08:10:53.869Z,56.73
2022-07-29T08:13:22.052Z,56.38
2022-07-29T08:15:48.778Z,56.51
2022-07-29T08:18:15.414Z,54.90
2022-07-29T08:20:41.979Z,53.46
2022-07-29T08:23:09.259Z,52.93
2022-07-29T08:25:38.762Z,51.96
2022-07-29T08:28:06.976Z,51.19
2022-07-29T08:30:33.879Z,51.46
2022-07-29T08:33:00.791Z,50.66
2022-07-29T08:35:32.110Z,50.90
2022-07-29T08:38:01.513Z,50.62
2022-07-29T08:40:32.002Z,50.29
2022-07-29T08:43:00.070Z,49.42
2022-07-29T08:45:28.990Z,49.04
2022-07-29T08:47:56.305Z,48.22
2022-07-29T08:50:22.884Z,47.79
2022-07-29T08:52:50.924Z,47.95
2022-07-29T08:55:18.187Z,47.61
2022-07-29T08:57:51.977Z,46.28
2022-07-29T09:00:23.245Z,46.06
2022-07-29T09:02:57.006Z,45.58
2022-07-29T09:05:25.173Z,45.36
2022-07-29T09:07:52.316Z,45.55
2022-07-29T09:10:19.182Z,44.76
2022-07-29T09:12:45.810Z,44.66
2022-07-29T09:15:12.354Z,44.89
2022-07-29T09:17:49.475Z,43.79
2022-07-29T09:20:22.731Z,44.00
2022-07-29T09:22:50.261Z,43.77
2022-07-29T09:25:35.438Z,43.80
2022-07-29T09:28:09.912Z,43.23
2022-07-29T09:30:50.406Z,43.24
2022-07-29T09:33:17.021Z,42.68
2022-07-29T09:35:43.595Z,42.63
2022-07-29T09:38:23.760Z,42.55
2022-07-29T09:41:05.446Z,41.60
2022-07-29T09:43:33.293Z,41.93
2022-07-29T09:46:15.293Z,41.13
2022-07-29T09:48:42.012Z,39.83
2022-07-29T09:51:26.954Z,39.29
2022-07-29T09:54:22.934Z,38.17
2022-07-29T09:56:49.830Z,36.93
2022-07-29T09:59:16.755Z,35.91
2022-07-29T10:01:43.492Z,35.69
2022-07-29T10:04:10.424Z,36.19
2022-07-29T10:07:03.548Z,34.95
2022-07-29T10:09:31.239Z,33.97
2022-07-29T10:12:09.779Z,33.17
2022-07-29T10:14:36.768Z,32.58
2022-07-29T10:17:04.824Z,32.80
2022-07-29T10:19:32.590Z,32.34
2022-07-29T10:22:00.535Z,31.66
2022-07-29T10:24:28.741Z,31.00
2022-07-29T10:26:56.880Z,30.18
2022-07-29T10:29:24.147Z,29.92
2022-07-29T10:31:53.989Z,29.34
2022-07-29T10:34:37.703Z,28.89
2022-07-29T10:37:20.659Z,28.55
2022-07-29T10:40:05.833Z,28.48
2022-07-29T10:42:34.223Z,28.02
2022-07-29T10:45:04.393Z,27.44
2022-07-29T10:47:31.600Z,28.21
2022-07-29T10:50:01.863Z,27.56
2022-07-29T10:52:50.322Z,26.05
2022-07-29T10:55:33.689Z,25.72
2022-07-29T10:58:31.696Z,25.57
2022-07-29T11:00:58.294Z,26.16
2022-07-29T11:03:50.286Z,24.27
2022-07-29T11:09:34.843Z,24.84
2022-07-29T11:12:02.382Z,24.60
2022-07-29T11:14:58.714Z,23.52
2022-07-29T11:17:25.628Z,24.16
2022-07-29T11:20:31.273Z,23.69
2022-07-29T11:22:59.411Z,23.53
2022-07-29T11:25:42.927Z,23.52
2022-07-29T11:28:23.103Z,23.85
2022-07-29T11:30:53.936Z,23.03
2022-07-29T11:33:54.077Z,23.92
2022-07-29T11:36:28.392Z,24.14
2022-07-29T11:39:27.400Z,23.16
2022-07-29T11:42:28.499Z,23.94
2022-07-29T11:44:59.443Z,23.10
2022-07-29T11:47:47.815Z,22.72
2022-07-29T11:50:29.764Z,23.65
2022-07-29T11:52:56.532Z,22.93
2022-07-29T11:55:24.456Z,22.89
2022-07-29T11:58:03.883Z,22.67
2022-07-29T12:00:33.724Z,23.45
2022-07-29T12:03:04.730Z,23.45
2022-07-29T12:05:36.276Z,22.48
2022-07-29T12:08:14.780Z,22.66
2022-07-29T12:10:42.265Z,22.37
2022-07-29T12:13:09.831Z,22.43
2022-07-29T12:15:45.950Z,22.91
2022-07-29T12:18:24.403Z,23.29
2022-07-29T12:20:59.430Z,23.27
2022-07-29T12:23:35.142Z,24.22
2022-07-29T12:26:07.438Z,24.62
2022-07-29T12:28:38.606Z,23.97
2022-07-29T12:31:06.112Z,24.50
2022-07-29T12:33:35.484Z,24.62
2022-07-29T12:36:07.271Z,25.13
2022-07-29T12:38:36.269Z,25.24
2022-07-29T12:41:04.508Z,25.19
2022-07-29T12:43:31.707Z,24.97
2022-07-29T12:45:58.455Z,25.16
2022-07-29T12:48:35.413Z,25.74
2022-07-29T12:51:04.157Z,26.05
2022-07-29T12:53:31.602Z,26.19
2022-07-29T12:55:59.443Z,26.26
2022-07-29T12:58:31.201Z,26.54
2022-07-29T13:01:00.837Z,26.29
2022-07-29T13:03:27.669Z,26.87
2022-07-29T13:05:54.265Z,26.62
2022-07-29T13:08:22.221Z,26.83
2022-07-29T13:10:49.249Z,27.09
2022-07-29T13:13:16.665Z,26.84
2022-07-29T13:15:44.906Z,27.45
2022-07-29T13:18:32.156Z,27.12
2022-07-29T13:21:12.160Z,26.87
2022-07-29T13:23:38.959Z,27.17
2022-07-29T13:26:10.026Z,27.75
2022-07-29T13:28:36.564Z,27.86
2022-07-29T13:31:03.282Z,27.52
2022-07-29T13:33:30.021Z,27.90
2022-07-29T13:35:56.561Z,27.90
2022-07-29T13:38:23.233Z,27.95
2022-07-29T13:40:57.928Z,28.22
2022-07-29T13:43:24.445Z,28.13
2022-07-29T13:45:51.005Z,27.74
2022-07-29T13:48:17.545Z,27.87
2022-07-29T13:50:44.138Z,28.16
2022-07-29T13:53:10.656Z,28.21
2022-07-29T13:55:44.962Z,27.31
2022-07-29T13:58:11.559Z,26.76
2022-07-29T14:00:38.061Z,26.81
2022-07-29T14:03:04.593Z,26.51
2022-07-29T14:05:31.080Z,26.13
2022-07-29T14:07:57.633Z,25.79
2022-07-29T14:10:24.177Z,26.12
2022-07-29T14:12:50.740Z,26.17
2022-07-29T14:15:17.273Z,25.79
2022-07-29T14:17:43.839Z,25.29
2022-07-29T14:20:10.683Z,24.77
2022-07-29T14:22:42.363Z,23.87
2022-07-29T14:25:14.416Z,23.27
2022-07-29T14:27:42.800Z,23.13
2022-07-29T14:30:10.407Z,22.04
2022-07-29T14:32:37.063Z,21.63
2022-07-29T14:35:04.045Z,21.62
2022-07-29T14:37:39.374Z,21.06
2022-07-29T14:40:07.798Z,20.30
2022-07-29T14:42:34.320Z,19.92
2022-07-29T14:45:00.870Z,19.78
2022-07-29T14:47:27.465Z,19.51
2022-07-29T14:49:54.126Z,19.98
2022-07-29T14:52:20.626Z,20.21
2022-07-29T14:54:47.180Z,20.24
2022-07-29T14:57:13.682Z,20.09
2022-07-29T14:59:40.221Z,20.03
2022-07-29T15:02:06.759Z,20.64
2022-07-29T15:04:33.391Z,21.14
2022-07-29T15:06:59.888Z,21.22
2022-07-29T15:09:26.518Z,21.08
2022-07-29T15:11:53.089Z,21.67
2022-07-29T15:14:19.647Z,21.85
2022-07-29T15:16:47.873Z,22.62
2022-07-29T15:19:14.929Z,22.83
2022-07-29T15:21:48.537Z,23.07
2022-07-29T15:24:19.196Z,22.49
2022-07-29T15:26:46.136Z,23.25
2022-07-29T15:29:12.729Z,23.52
2022-07-29T15:31:39.388Z,23.43
2022-07-29T15:34:07.220Z,23.20
2022-07-29T15:39:21.848Z,23.74
2022-07-29T15:41:49.867Z,23.82
2022-07-29T15:44:16.513Z,23.84
2022-07-29T15:46:43.016Z,23.65
2022-07-29T15:49:09.648Z,23.94
2022-07-29T15:51:36.288Z,23.54
2022-07-29T15:54:04.453Z,24.07
2022-07-29T15:56:31.311Z,24.31
2022-07-29T15:58:58.067Z,24.85
2022-07-29T16:01:24.669Z,25.69
2022-07-29T16:03:51.287Z,25.57
2022-07-29T16:06:17.910Z,26.00
2022-07-29T16:08:44.764Z,25.79
2022-07-29T16:11:11.271Z,26.16
2022-07-29T16:13:37.873Z,26.62
2022-07-29T16:16:04.896Z,26.46
2022-07-29T16:18:31.498Z,26.30
2022-07-29T16:20:59.014Z,26.69
2022-07-29T16:23:25.580Z,26.52
2022-07-29T16:26:00.886Z,26.87
2022-07-29T16:28:28.897Z,26.72
2022-07-29T16:30:55.531Z,26.84
2022-07-29T16:33:22.067Z,26.77
2022-07-29T16:35:48.565Z,26.83
2022-07-29T16:38:15.552Z,26.63
2022-07-29T16:40:42.236Z,26.16
2022-07-29T16:43:08.899Z,26.10
2022-07-29T16:45:45.331Z,25.92
2022-07-29T16:48:14.516Z,26.25
2022-07-29T16:50:43.315Z,25.70
2022-07-29T16:53:10.354Z,25.77
2022-07-29T16:55:37.095Z,25.89
2022-07-29T16:58:03.702Z,25.83
2022-07-29T17:00:30.294Z,25.40
2022-07-29T17:02:56.923Z,25.53
2022-07-29T17:05:23.566Z,25.73
2022-07-29T17:07:50.098Z,26.01
2022-07-29T17:10:16.653Z,26.53
2022-07-29T17:12:43.197Z,26.81
2022-07-29T17:15:11.640Z,26.54
2022-07-29T17:17:55.272Z,26.88
2022-07-29T17:20:23.190Z,26.56
2022-07-29T17:22:49.928Z,26.37
2022-07-29T17:25:20.343Z,26.57
2022-07-29T17:27:48.965Z,26.67
2022-07-29T17:30:15.463Z,26.63
2022-07-29T17:32:42.020Z,27.08
2022-07-29T17:35:09.266Z,26.93
2022-07-29T17:37:35.816Z,27.03
2022-07-29T17:40:02.315Z,27.18
2022-07-29T17:42:28.853Z,27.15
2022-07-29T17:44:55.369Z,27.31
2022-07-29T17:47:21.852Z,27.44
2022-07-29T17:49:48.352Z,27.56
2022-07-29T17:52:14.899Z,27.96
2022-07-29T17:54:41.374Z,27.29
2022-07-29T17:57:07.892Z,27.86
2022-07-29T17:59:34.481Z,28.03
2022-07-29T18:02:01.119Z,27.62
2022-07-29T18:04:27.677Z,28.28
2022-07-29T18:06:54.250Z,28.68
2022-07-29T18:09:20.807Z,29.05
2022-07-29T18:11:47.858Z,29.47
2022-07-29T18:14:14.711Z,29.88
2022-07-29T18:16:41.326Z,31.21
2022-07-29T18:19:07.874Z,31.72
2022-07-29T18:21:43.350Z,32.54
2022-07-29T18:24:20.515Z,32.51
2022-07-29T18:26:47.105Z,33.61
2022-07-29T18:29:13.678Z,33.98
2022-07-29T18:31:40.184Z,33.51
2022-07-29T18:34:06.740Z,34.81
2022-07-29T18:36:33.229Z,34.08
2022-07-29T18:38:59.784Z,35.64
2022-07-29T18:41:26.309Z,34.87
2022-07-29T18:43:52.827Z,36.19
2022-07-29T18:46:21.334Z,36.21
2022-07-29T18:48:48.056Z,36.36
2022-07-29T18:51:14.613Z,36.17
2022-07-29T18:53:41.174Z,36.47
2022-07-29T18:56:07.705Z,36.89
2022-07-29T18:58:34.261Z,37.21
2022-07-29T19:01:00.853Z,37.01
2022-07-29T19:03:27.480Z,37.75
2022-07-29T19:05:53.988Z,38.32
2022-07-29T19:08:20.582Z,38.03
2022-07-29T19:10:47.135Z,38.14
2022-07-29T19:13:13.679Z,38.50
2022-07-29T19:15:40.220Z,38.89
2022-07-29T19:18:06.872Z,39.44
2022-07-29T19:20:33.486Z,39.70
2022-07-29T19:23:00.051Z,39.96
2022-07-29T19:25:26.617Z,39.50
2022-07-29T19:27:53.166Z,40.57
2022-07-29T19:30:19.847Z,40.60
2022-07-29T19:32:46.500Z,40.57
2022-07-29T19:35:13.240Z,41.45
2022-07-29T19:37:39.855Z,41.12
2022-07-29T19:40:07.224Z,41.23
2022-07-29T19:42:33.976Z,41.80
2022-07-29T19:45:00.571Z,41.70
2022-07-29T19:47:27.131Z,42.04
2022-07-29T19:49:53.629Z,42.42
2022-07-29T19:52:20.366Z,42.24
2022-07-29T19:54:46.893Z,42.47
2022-07-29T19:57:13.513Z,43.08
2022-07-29T19:59:40.820Z,43.19
2022-07-29T20:02:07.738Z,43.51
2022-07-29T20:04:34.314Z,43.71
2022-07-29T20:07:02.008Z,43.47
2022-07-29T20:09:28.976Z,43.47
2022-07-29T20:11:55.542Z,42.85
2022-07-29T20:14:22.559Z,43.03
2022-07-29T20:16:50.060Z,43.58
2022-07-29T20:19:17.389Z,43.65
2022-07-29T20:21:44.192Z,43.56
2022-07-29T20:24:11.015Z,43.50
2022-07-29T20:26:38.085Z,43.86
2022-07-29T20:29:04.632Z,43.83
2022-07-29T20:31:32.079Z,44.00
2022-07-29T20:33:59.031Z,44.04
2022-07-29T20:36:25.619Z,44.31
2022-07-29T20:38:52.168Z,44.14
2022-07-29T20:41:18.720Z,44.24
2022-07-29T20:43:45.306Z,44.24
2022-07-29T20:46:11.926Z,44.54
2022-07-29T20:48:38.641Z,44.57
2022-07-29T20:51:05.355Z,44.69
2022-07-29T20:53:31.979Z,44.85
2022-07-29T20:55:58.496Z,44.89
2022-07-29T20:58:25.067Z,45.19
2022-07-29T21:00:51.616Z,45.19
2022-07-29T21:03:18.179Z,45.71
2022-07-29T21:05:44.861Z,45.78
2022-07-29T21:08:11.497Z,46.04
2022-07-29T21:10:38.102Z,46.45
2022-07-29T21:13:04.625Z,46.62
2022-07-29T21:15:31.391Z,47.04
2022-07-29T21:17:58.267Z,47.06
2022-07-29T21:20:24.806Z,47.19
2022-07-29T21:22:51.318Z,47.35
2022-07-29T21:25:17.867Z,47.16
2022-07-29T21:27:44.378Z,47.49
2022-07-29T21:30:11.118Z,47.72
2022-07-29T21:32:37.657Z,48.08
2022-07-29T21:35:15.173Z,48.29
2022-07-29T21:37:51.442Z,48.12
2022-07-29T21:40:17.984Z,48.39
2022-07-29T21:42:44.550Z,48.56
2022-07-29T21:45:12.553Z,48.90
2022-07-29T21:47:39.545Z,49.15
2022-07-29T21:50:06.530Z,49.38
2022-07-29T21:52:33.117Z,49.90
2022-07-29T21:54:59.682Z,50.00
2022-07-29T21:57:26.213Z,50.17
2022-07-29T21:59:52.969Z,50.06
2022-07-29T22:02:19.520Z,50.42
2022-07-29T22:04:46.103Z,50.36
2022-07-29T22:07:12.739Z,50.66
2022-07-29T22:09:39.248Z,50.46
2022-07-29T22:12:06.122Z,51.48
2022-07-29T22:14:32.648Z,51.48
2022-07-29T22:16:59.670Z,51.45
2022-07-29T22:19:27.676Z,51.95
2022-07-29T22:21:56.484Z,51.50
2022-07-29T22:24:22.986Z,52.07
2022-07-29T22:26:49.533Z,52.69
2022-07-29T22:29:16.076Z,52.72
2022-07-29T22:31:42.614Z,52.66
2022-07-29T22:34:09.234Z,53.26
2022-07-29T22:36:35.770Z,53.28
2022-07-29T22:39:02.278Z,53.64
2022-07-29T22:41:28.806Z,53.52
2022-07-29T22:43:55.415Z,53.72
2022-07-29T22:46:22.348Z,54.17
2022-07-29T22:48:48.919Z,54.16
2022-07-29T22:51:15.493Z,54.37
2022-07-29T22:53:41.997Z,54.36
2022-07-29T22:56:08.577Z,54.24
2022-07-29T22:58:35.101Z,54.04
2022-07-29T23:01:01.673Z,54.34
2022-07-29T23:03:28.347Z,54.03
2022-07-29T23:05:54.942Z,54.51
2022-07-29T23:08:21.492Z,53.75
2022-07-29T23:10:48.080Z,54.09
2022-07-29T23:13:14.822Z,54.22
2022-07-29T23:15:41.691Z,54.78
2022-07-29T23:18:10.353Z,54.96
2022-07-29T23:20:36.945Z,54.19
2022-07-29T23:23:03.535Z,54.67
2022-07-29T23:25:30.152Z,54.55
2022-07-29T23:27:57.125Z,54.70
2022-07-29T23:30:23.935Z,54.99
2022-07-29T23:32:50.617Z,55.34
2022-07-29T23:35:17.140Z,55.42
2022-07-29T23:37:43.713Z,55.46
2022-07-29T23:40:14.449Z,55.17
2022-07-29T23:42:41.638Z,56.32
2022-07-29T23:45:09.245Z,55.14
2022-07-29T23:47:35.833Z,56.22
2022-07-29T23:50:02.351Z,56.47
2022-07-29T23:52:28.890Z,56.29
2022-07-29T23:54:55.652Z,57.02
2022-07-29T23:57:42.195Z,57.28
